Time;durP1;ratioP1;P1;durP2;ratioP2;P2;SDS_P1;SDS_P2;PMS_P1;PMS_P2;Temp;Humidity;BMP_temperature;BMP_pressure;BME280_temperature;BME280_humidity;BME280_pressure;Samples;Min_cycle;Max_cycle;Signal;HPM_P1;HPM_P2
2021/04/08 00:01:19;;;;;;;9.43;4.00;;;;;;;4.29;66.34;101132.59;5057800;28;20177;-65
2021/04/08 00:03:45;;;;;;;10.60;4.40;;;;;;;4.15;66.58;101138.06;5057983;28;20216;-66
2021/04/08 00:06:11;;;;;;;13.10;4.40;;;;;;;3.94;66.84;101138.03;5057629;28;20256;-66
2021/04/08 00:08:36;;;;;;;16.97;5.20;;;;;;;4.29;66.45;101140.34;5057519;28;20189;-66
2021/04/08 00:11:02;;;;;;;11.80;5.23;;;;;;;3.80;68.66;101144.28;5058349;28;20494;-66
2021/04/08 00:13:28;;;;;;;13.63;4.50;;;;;;;4.37;65.68;101138.94;5057508;28;20181;-65
2021/04/08 00:15:53;;;;;;;14.70;4.23;;;;;;;4.02;66.31;101139.25;5056636;28;20432;-66
2021/04/08 00:18:18;;;;;;;12.10;4.30;;;;;;;4.51;65.14;101143.00;5057939;28;20173;-65
2021/04/08 00:20:44;;;;;;;17.60;5.27;;;;;;;4.30;65.65;101137.84;5057605;28;20177;-66
2021/04/08 00:23:10;;;;;;;13.33;4.60;;;;;;;4.29;65.37;101143.81;5057340;28;20174;-65
2021/04/08 00:25:38;;;;;;;6.97;3.80;;;;;;;4.11;66.68;101153.34;5059144;28;20217;-65
2021/04/08 00:28:06;;;;;;;13.83;4.23;;;;;;;3.94;67.59;101160.34;5057530;28;20181;-65
2021/04/08 00:30:42;;;;;;;7.50;3.80;;;;;;;4.35;66.28;101153.50;5057203;28;20456;-65
2021/04/08 00:33:08;;;;;;;10.47;3.93;;;;;;;4.41;65.81;101146.03;5057485;28;20498;-65
2021/04/08 00:35:33;;;;;;;9.50;3.93;;;;;;;4.39;65.87;101163.16;5057452;28;20477;-66
2021/04/08 00:37:59;;;;;;;8.50;4.20;;;;;;;4.45;65.52;101162.50;5057791;28;20424;-65
2021/04/08 00:40:24;;;;;;;10.77;4.13;;;;;;;4.44;64.94;101160.75;5058378;28;20170;-66
2021/04/08 00:42:49;;;;;;;13.17;4.77;;;;;;;4.24;66.20;101168.53;5061240;28;20216;-66
2021/04/08 00:45:15;;;;;;;15.97;4.53;;;;;;;4.21;66.14;101171.00;5060687;28;20483;-66
2021/04/08 00:47:40;;;;;;;16.73;4.53;;;;;;;4.52;65.17;101169.72;5060943;28;20596;-66
2021/04/08 00:50:06;;;;;;;11.83;4.33;;;;;;;4.19;65.97;101175.22;5061497;28;20642;-65
2021/04/08 00:52:32;;;;;;;11.90;3.97;;;;;;;4.47;64.40;101166.06;5060674;28;20209;-66
2021/04/08 00:54:57;;;;;;;13.17;4.27;;;;;;;3.95;65.91;101180.19;5060196;28;20770;-66
2021/04/08 00:57:22;;;;;;;12.70;4.10;;;;;;;4.02;66.26;101183.09;5063491;28;20521;-67
2021/04/08 00:59:51;;;;;;;10.23;4.50;;;;;;;4.18;65.62;101186.34;5062257;28;20185;-66
2021/04/08 01:02:16;;;;;;;8.90;3.80;;;;;;;4.09;65.19;101185.97;5060437;28;20717;-66
2021/04/08 01:04:41;;;;;;;11.30;4.40;;;;;;;4.31;64.37;101186.03;5061128;28;20491;-66
2021/04/08 01:07:08;;;;;;;18.30;4.97;;;;;;;4.21;64.84;101184.78;5060144;28;20507;-66
2021/04/08 01:09:33;;;;;;;15.57;5.10;;;;;;;4.35;63.80;101193.09;5060387;28;20189;-66
2021/04/08 01:11:58;;;;;;;9.40;3.63;;;;;;;4.38;63.85;101203.56;5060779;28;20495;-66
2021/04/08 01:14:24;;;;;;;11.70;4.80;;;;;;;4.35;64.20;101212.88;5060385;28;20169;-66
2021/04/08 01:17:01;;;;;;;9.93;4.13;;;;;;;4.55;62.69;101208.56;5060430;28;20186;-66
2021/04/08 01:19:45;;;;;;;9.80;3.80;;;;;;;4.29;63.69;101220.34;5059616;28;20507;-67
2021/04/08 01:22:19;;;;;;;16.50;4.60;;;;;;;4.09;64.13;101217.81;5060197;28;20408;-66
2021/04/08 01:25:10;;;;;;;17.33;4.00;;;;;;;4.20;64.07;101226.00;5059586;28;20523;-66
2021/04/08 01:27:40;;;;;;;8.63;4.00;;;;;;;4.35;64.32;101229.25;5059525;28;20433;-65
2021/04/08 01:30:39;;;;;;;8.40;4.13;;;;;;;4.14;64.77;101228.31;5059341;28;20831;-65
2021/04/08 01:33:13;;;;;;;12.50;4.50;;;;;;;4.75;62.89;101218.81;5059357;28;20802;-65
2021/04/08 01:35:40;;;;;;;10.30;4.40;;;;;;;4.59;62.83;101215.63;5060356;28;20805;-66
2021/04/08 01:38:13;;;;;;;17.03;3.97;;;;;;;4.55;63.16;101221.47;5059624;28;20486;-67
2021/04/08 01:40:38;;;;;;;12.87;4.23;;;;;;;4.37;62.47;101231.88;5059887;28;20622;-65
2021/04/08 01:43:05;;;;;;;12.57;4.00;;;;;;;4.44;62.67;101233.03;5059070;28;20442;-66
2021/04/08 01:45:31;;;;;;;12.07;4.13;;;;;;;4.27;63.38;101251.25;5059511;28;20488;-65
2021/04/08 01:47:58;;;;;;;8.93;4.40;;;;;;;4.41;63.67;101253.56;5059777;28;20666;-65
2021/04/08 01:50:24;;;;;;;7.70;4.10;;;;;;;3.99;65.79;101262.06;5059690;28;20481;-66
2021/04/08 01:52:51;;;;;;;11.33;3.70;;;;;;;3.61;67.98;101249.19;5058954;28;20520;-65
2021/04/08 01:55:18;;;;;;;7.80;3.33;;;;;;;3.68;67.54;101252.91;5059761;28;20522;-66
2021/04/08 01:57:44;;;;;;;9.83;4.37;;;;;;;3.48;68.12;101254.59;5058987;28;20455;-65
2021/04/08 02:00:12;;;;;;;8.50;3.70;;;;;;;4.17;66.35;101256.84;5059419;28;20694;-65
2021/04/08 02:02:43;;;;;;;10.90;4.37;;;;;;;3.62;67.68;101253.53;5059178;28;20432;-65
2021/04/08 02:05:11;;;;;;;7.03;3.40;;;;;;;3.81;65.62;101251.81;5059427;28;20821;-65
2021/04/08 02:07:37;;;;;;;11.00;3.90;;;;;;;4.16;64.71;101253.38;5058449;28;20412;-66
2021/04/08 02:10:05;;;;;;;5.07;3.27;;;;;;;3.84;64.06;101264.81;5058694;28;20677;-66
2021/04/08 02:12:31;;;;;;;10.40;4.00;;;;;;;4.36;63.82;101256.81;5059778;28;20470;-66
2021/04/08 02:14:56;;;;;;;7.87;3.50;;;;;;;4.07;63.97;101254.66;5058488;28;20681;-65
2021/04/08 02:17:22;;;;;;;7.47;3.43;;;;;;;4.35;63.84;101265.38;5058534;28;20180;-66
2021/04/08 02:19:48;;;;;;;9.97;3.90;;;;;;;3.60;66.68;101278.38;5059680;28;20173;-66
2021/04/08 02:22:14;;;;;;;9.73;3.50;;;;;;;4.03;65.60;101275.19;5058238;28;20537;-65
2021/04/08 02:24:40;;;;;;;10.40;3.70;;;;;;;4.29;64.82;101279.72;5058002;28;20185;-64
2021/04/08 02:27:06;;;;;;;5.10;3.07;;;;;;;4.04;65.98;101281.22;5059053;28;20455;-65
2021/04/08 02:29:32;;;;;;;12.87;4.33;;;;;;;3.89;67.11;101286.56;5058347;28;20418;-65
2021/04/08 02:31:59;;;;;;;10.03;3.40;;;;;;;3.80;66.42;101288.72;5058939;28;20479;-65
2021/04/08 02:34:24;;;;;;;8.43;3.20;;;;;;;3.85;66.70;101289.81;5059321;28;20403;-65
2021/04/08 02:36:50;;;;;;;6.70;3.57;;;;;;;4.04;66.36;101289.81;5058996;28;20636;-64
2021/04/08 02:39:15;;;;;;;7.30;3.20;;;;;;;3.92;66.78;101290.97;5058417;28;20189;-65
2021/04/08 02:41:42;;;;;;;7.03;3.70;;;;;;;3.98;66.69;101292.13;5058562;28;20178;-65
2021/04/08 02:44:07;;;;;;;6.60;3.73;;;;;;;3.40;68.91;101299.72;5059511;28;20174;-64
2021/04/08 02:46:33;;;;;;;7.63;3.37;;;;;;;3.73;67.66;101304.72;5060129;28;20416;-65
2021/04/08 02:48:58;;;;;;;8.70;3.30;;;;;;;3.49;67.38;101305.31;5063548;28;20534;-66
2021/04/08 02:51:33;;;;;;;7.73;3.57;;;;;;;3.44;67.40;101302.53;5065123;28;20201;-65
2021/04/08 02:54:08;;;;;;;4.90;3.20;;;;;;;3.45;67.33;101306.91;5063492;28;20185;-66
2021/04/08 02:56:38;;;;;;;4.53;2.80;;;;;;;3.56;66.25;101307.41;5059457;28;20412;-65
2021/04/08 02:59:16;;;;;;;8.23;3.20;;;;;;;3.68;66.41;101307.06;5058978;28;20454;-65
2021/04/08 03:01:51;;;;;;;9.37;4.17;;;;;;;3.99;64.89;101311.06;5058423;28;20509;-65
2021/04/08 03:04:19;;;;;;;10.63;3.83;;;;;;;3.59;66.94;101320.44;5057983;28;20804;-65
2021/04/08 03:06:45;;;;;;;7.40;3.57;;;;;;;3.76;66.43;101328.97;5059892;28;20412;-66
2021/04/08 03:09:11;;;;;;;10.13;3.40;;;;;;;3.71;65.68;101321.00;5060345;28;20502;-67
2021/04/08 03:11:37;;;;;;;6.80;3.33;;;;;;;3.84;64.95;101324.16;5060461;28;20448;-66
2021/04/08 03:14:06;;;;;;;8.90;3.60;;;;;;;4.13;63.89;101328.06;5059209;28;20412;-66
2021/04/08 03:16:36;;;;;;;7.87;3.50;;;;;;;3.83;64.36;101330.09;5058011;28;20231;-66
2021/04/08 03:19:02;;;;;;;10.33;3.17;;;;;;;4.11;64.25;101336.56;5059362;28;20423;-66
2021/04/08 03:21:27;;;;;;;6.50;2.97;;;;;;;3.58;65.73;101336.69;5057612;28;20416;-65
2021/04/08 03:23:53;;;;;;;11.03;3.30;;;;;;;3.77;65.18;101340.16;5057744;28;20439;-66
2021/04/08 03:26:20;;;;;;;6.00;2.90;;;;;;;3.61;65.61;101344.56;5057946;28;20295;-65
2021/04/08 03:28:45;;;;;;;4.77;3.23;;;;;;;3.52;66.60;101351.91;5058128;28;20415;-66
2021/04/08 03:31:12;;;;;;;7.83;3.43;;;;;;;3.83;65.44;101355.91;5057670;28;20455;-66
2021/04/08 03:33:37;;;;;;;6.23;3.13;;;;;;;3.97;64.83;101359.16;5057912;28;20173;-65
2021/04/08 03:36:03;;;;;;;5.77;2.77;;;;;;;3.53;66.35;101357.13;5058195;28;20416;-66
2021/04/08 03:38:30;;;;;;;10.00;3.37;;;;;;;3.96;64.88;101363.41;5058162;28;20184;-66
2021/04/08 03:40:59;;;;;;;9.47;3.40;;;;;;;3.77;66.10;101365.94;5056986;28;20447;-65
2021/04/08 03:43:25;;;;;;;4.20;2.70;;;;;;;3.51;67.15;101366.47;5057022;28;20510;-66
2021/04/08 03:45:51;;;;;;;7.10;3.20;;;;;;;3.48;67.07;101371.47;5057557;28;20499;-67
2021/04/08 03:48:17;;;;;;;8.10;3.00;;;;;;;3.40;68.50;101374.47;5057939;28;20416;-65
2021/04/08 03:50:43;;;;;;;9.20;3.60;;;;;;;3.59;68.03;101374.56;5057135;28;20169;-65
2021/04/08 03:53:09;;;;;;;13.80;4.00;;;;;;;3.72;67.68;101370.88;5057112;28;20503;-66
2021/04/08 03:55:35;;;;;;;12.27;4.30;;;;;;;3.82;66.83;101375.66;5057185;28;20173;-65
2021/04/08 03:58:03;;;;;;;11.57;4.93;;;;;;;3.35;68.93;101384.56;5057985;28;20454;-65
2021/04/08 04:00:29;;;;;;;8.50;3.57;;;;;;;3.81;67.37;101385.91;5058136;28;20641;-65
2021/04/08 04:02:54;;;;;;;11.90;4.07;;;;;;;3.27;69.13;101386.75;5057466;28;20443;-65
2021/04/08 04:05:21;;;;;;;12.53;4.33;;;;;;;3.10;70.77;101385.03;5057680;28;20447;-65
2021/04/08 04:07:51;;;;;;;14.50;5.70;;;;;;;3.51;69.10;101383.63;5057219;28;20269;-66
2021/04/08 04:10:21;;;;;;;7.30;3.77;;;;;;;3.74;68.00;101402.78;5057126;28;20469;-65
2021/04/08 04:12:50;;;;;;;9.30;3.97;;;;;;;3.44;68.57;101404.78;5057546;28;20690;-65
2021/04/08 04:15:16;;;;;;;10.33;3.93;;;;;;;3.63;68.57;101410.00;5058098;28;20431;-65
2021/04/08 04:17:41;;;;;;;10.30;4.00;;;;;;;3.52;68.04;101418.91;5060866;28;20412;-65
2021/04/08 04:20:07;;;;;;;14.40;4.13;;;;;;;3.45;69.18;101409.09;5061878;28;20440;-65
2021/04/08 04:22:34;;;;;;;11.20;5.83;;;;;;;3.68;67.92;101408.53;5060946;28;20215;-65
2021/04/08 04:24:59;;;;;;;7.23;3.03;;;;;;;3.54;67.99;101409.56;5061158;28;20303;-66
2021/04/08 04:27:25;;;;;;;7.43;4.70;;;;;;;3.52;68.08;101416.34;5061600;28;20782;-65
2021/04/08 04:29:50;;;;;;;9.57;3.70;;;;;;;3.64;67.48;101421.19;5061306;28;20177;-65
2021/04/08 04:32:15;;;;;;;10.43;3.70;;;;;;;3.51;68.01;101430.91;5061175;28;20479;-65
2021/04/08 04:34:42;;;;;;;15.10;3.80;;;;;;;3.75;66.66;101432.03;5061601;28;20166;-66
2021/04/08 04:37:07;;;;;;;10.53;4.00;;;;;;;3.77;68.84;101425.25;5060979;28;20182;-67
2021/04/08 04:39:33;;;;;;;8.53;3.93;;;;;;;3.40;68.44;101436.31;5060723;28;20444;-65
2021/04/08 04:41:58;;;;;;;8.43;3.63;;;;;;;3.70;67.19;101440.44;5061299;28;20165;-65
2021/04/08 04:44:24;;;;;;;7.50;3.50;;;;;;;3.18;69.52;101430.09;5060986;28;20177;-65
2021/04/08 04:46:51;;;;;;;6.50;3.80;;;;;;;3.49;67.71;101431.63;5059674;28;20219;-65
2021/04/08 04:49:16;;;;;;;11.77;3.73;;;;;;;3.85;67.60;101429.97;5076004;28;20465;-65
2021/04/08 04:51:41;;;;;;;6.97;3.33;;;;;;;3.50;66.82;101433.41;5062011;28;20467;-65
2021/04/08 04:54:06;;;;;;;12.83;4.03;;;;;;;3.34;67.85;101435.25;5067822;28;20496;-66
2021/04/08 04:56:32;;;;;;;11.97;4.10;;;;;;;3.30;67.52;101432.41;5081054;28;20199;-65
2021/04/08 04:58:57;;;;;;;9.23;3.80;;;;;;;3.57;67.57;101438.06;5045618;28;20249;-66
2021/04/08 05:01:23;;;;;;;10.93;4.10;;;;;;;3.14;67.37;101444.53;5050069;28;20534;-65
2021/04/08 05:03:48;;;;;;;9.40;3.77;;;;;;;3.51;66.88;101450.66;5060241;28;20177;-65
2021/04/08 05:06:13;;;;;;;12.23;4.27;;;;;;;3.13;68.46;101453.06;5060069;28;20169;-66
2021/04/08 05:08:38;;;;;;;8.97;3.50;;;;;;;3.15;67.64;101455.72;5058274;28;20524;-65
2021/04/08 05:11:04;;;;;;;8.27;3.37;;;;;;;3.19;68.19;101468.84;5040384;28;20255;-65
2021/04/08 05:13:29;;;;;;;6.63;3.30;;;;;;;3.14;68.65;101461.66;5039649;28;20170;-66
2021/04/08 05:15:54;;;;;;;5.70;3.20;;;;;;;3.02;68.44;101465.38;5048449;28;20289;-66
2021/04/08 05:18:20;;;;;;;10.23;3.53;;;;;;;3.44;68.94;101461.47;5060794;28;20181;-65
2021/04/08 05:20:45;;;;;;;8.77;3.27;;;;;;;3.58;67.78;101470.75;5057790;28;20546;-66
2021/04/08 05:23:10;;;;;;;13.07;4.13;;;;;;;3.31;67.70;101467.69;5060054;28;20173;-66
2021/04/08 05:25:36;;;;;;;13.40;3.63;;;;;;;3.64;66.74;101468.50;5060164;28;20221;-66
2021/04/08 05:28:01;;;;;;;8.20;3.17;;;;;;;3.39;69.30;101465.50;5059721;28;20174;-66
2021/04/08 05:30:27;;;;;;;6.63;3.70;;;;;;;3.50;69.32;101470.38;5060092;28;20197;-65
2021/04/08 05:32:52;;;;;;;9.57;3.50;;;;;;;3.20;67.84;101485.19;5060101;28;20302;-65
2021/04/08 05:35:18;;;;;;;6.03;3.80;;;;;;;3.73;68.34;101482.66;5060032;28;20166;-66
2021/04/08 05:37:44;;;;;;;5.00;3.40;;;;;;;3.63;66.05;101478.75;5059662;28;20177;-65
2021/04/08 05:40:09;;;;;;;11.17;3.90;;;;;;;3.17;66.74;101488.47;5059940;28;20420;-65
2021/04/08 05:42:35;;;;;;;7.27;3.47;;;;;;;3.69;66.35;101497.09;5059725;28;20205;-68
2021/04/08 05:45:00;;;;;;;6.13;3.17;;;;;;;3.67;66.31;101494.44;5059865;28;20177;-66
2021/04/08 05:47:26;;;;;;;6.97;3.50;;;;;;;3.54;66.08;101494.63;5045831;28;20259;-66
2021/04/08 05:49:51;;;;;;;6.60;4.07;;;;;;;3.73;66.75;101499.00;5039813;28;20178;-65
2021/04/08 05:52:16;;;;;;;6.13;3.97;;;;;;;3.89;65.48;101503.22;5051354;28;20283;-65
2021/04/08 05:54:42;;;;;;;7.90;3.97;;;;;;;3.94;67.35;101504.34;5059160;28;20221;-66
2021/04/08 05:57:07;;;;;;;9.37;3.73;;;;;;;4.34;64.55;101503.69;5068100;28;20177;-67
2021/04/08 05:59:32;;;;;;;6.07;3.40;;;;;;;4.08;65.50;101514.47;5053931;28;20212;-66
2021/04/08 06:01:58;;;;;;;8.57;3.83;;;;;;;3.73;66.85;101511.91;5050710;28;20193;-66
2021/04/08 06:04:23;;;;;;;7.17;3.83;;;;;;;4.82;63.54;101511.06;5048958;28;20548;-67
2021/04/08 06:06:49;;;;;;;7.57;3.43;;;;;;;5.85;59.76;101511.16;5040779;28;20579;-66
2021/04/08 06:09:14;;;;;;;13.60;4.20;;;;;;;7.57;54.98;101509.00;5038866;28;20437;-66
2021/04/08 06:11:39;;;;;;;4.70;3.33;;;;;;;8.28;51.87;101510.47;5048459;28;20500;-66
2021/04/08 06:14:05;;;;;;;7.23;4.60;;;;;;;9.00;50.03;101501.38;5041066;28;20196;-66
2021/04/08 06:16:30;;;;;;;8.20;3.90;;;;;;;9.49;48.27;101503.56;5039041;28;20200;-65
2021/04/08 06:18:56;;;;;;;6.80;4.17;;;;;;;10.14;46.49;101497.34;5041447;28;20181;-65
2021/04/08 06:21:21;;;;;;;8.67;4.47;;;;;;;10.05;46.75;101511.94;5039589;28;20178;-65
2021/04/08 06:23:47;;;;;;;5.50;3.30;;;;;;;9.27;48.90;101510.78;5038721;28;20509;-65
2021/04/08 06:26:12;;;;;;;6.10;3.90;;;;;;;9.83;46.89;101514.84;5076416;28;20226;-64
2021/04/08 06:28:38;;;;;;;4.40;3.23;;;;;;;9.49;47.77;101517.44;5060303;28;20221;-65
2021/04/08 06:31:03;;;;;;;7.77;3.53;;;;;;;9.53;47.28;101516.69;5058615;28;20201;-68
2021/04/08 06:33:28;;;;;;;6.40;3.40;;;;;;;8.95;47.97;101526.34;5047542;28;20239;-63
2021/04/08 06:35:55;;;;;;;6.70;3.63;;;;;;;10.87;45.28;101523.34;5040537;28;20210;-67
2021/04/08 06:38:20;;;;;;;5.63;3.60;;;;;;;12.32;42.34;101509.41;5047101;28;20879;-66
2021/04/08 06:40:45;;;;;;;6.40;3.30;;;;;;;11.49;43.04;101521.91;5053703;28;20197;-68
2021/04/08 06:43:11;;;;;;;7.40;3.67;;;;;;;12.17;41.46;101512.66;5058917;28;20536;-66
2021/04/08 06:45:39;;;;;;;6.50;3.97;;;;;;;11.52;42.19;101514.16;5062807;28;20185;-67
2021/04/08 06:48:10;;;;;;;6.43;3.70;;;;;;;11.14;43.19;101527.38;5089947;28;20448;-67
2021/04/08 06:50:37;;;;;;;6.50;3.60;;;;;;;10.65;44.78;101535.91;5042626;28;20399;-66
2021/04/08 06:53:05;;;;;;;6.73;4.27;;;;;;;12.20;41.79;101525.78;5057510;28;20418;-65
2021/04/08 06:55:31;;;;;;;8.60;4.20;;;;;;;13.01;38.86;101531.25;5056868;28;20469;-68
2021/04/08 06:57:58;;;;;;;7.80;4.30;;;;;;;11.67;42.74;101537.94;5058181;28;20441;-68
2021/04/08 07:00:23;;;;;;;8.30;3.60;;;;;;;8.22;52.00;101549.22;5058351;28;20595;-67
2021/04/08 07:02:49;;;;;;;9.30;4.10;;;;;;;7.89;53.02;101555.09;5060831;28;20487;-68
2021/04/08 07:05:15;;;;;;;7.43;4.10;;;;;;;7.42;54.32;101556.06;5075720;28;20184;-66
2021/04/08 07:07:40;;;;;;;8.57;4.17;;;;;;;6.02;59.07;101569.72;5058291;28;20918;-66
2021/04/08 07:10:06;;;;;;;7.53;4.17;;;;;;;6.26;58.45;101573.25;5057353;28;20595;-66
2021/04/08 07:12:32;;;;;;;9.20;4.57;;;;;;;5.02;62.38;101575.66;5038427;28;20212;-66
2021/04/08 07:14:58;;;;;;;8.23;3.50;;;;;;;5.54;62.05;101577.13;5049860;28;20459;-65
2021/04/08 07:17:23;;;;;;;9.90;4.87;;;;;;;5.93;60.72;101573.56;5058547;28;20180;-65
2021/04/08 07:19:48;;;;;;;6.90;4.47;;;;;;;6.06;60.99;101578.47;5058047;28;20173;-66
2021/04/08 07:22:14;;;;;;;6.33;3.40;;;;;;;6.06;59.64;101594.91;5056605;28;20208;-65
2021/04/08 07:24:48;;;;;;;6.63;3.63;;;;;;;5.42;62.26;101595.56;5058065;28;20184;-67
2021/04/08 07:27:22;;;;;;;13.67;4.60;;;;;;;4.48;66.69;101594.72;5058209;28;20420;-65
2021/04/08 07:29:52;;;;;;;7.53;3.40;;;;;;;5.03;66.19;101587.78;5049093;28;20777;-64
2021/04/08 07:32:28;;;;;;;9.37;4.07;;;;;;;5.52;64.50;101583.91;5037721;28;20468;-65
2021/04/08 07:35:01;;;;;;;11.33;4.37;;;;;;;5.58;63.67;101599.72;5038604;28;20805;-65
2021/04/08 07:37:34;;;;;;;7.87;4.23;;;;;;;6.08;62.97;101589.78;5038302;28;20492;-65
2021/04/08 07:40:03;;;;;;;10.93;4.30;;;;;;;6.02;61.72;101598.19;5046504;28;20946;-65
2021/04/08 07:42:31;;;;;;;7.33;4.23;;;;;;;6.42;61.16;101608.44;5057728;28;20427;-65
2021/04/08 07:45:06;;;;;;;4.57;3.53;;;;;;;6.74;59.85;101602.81;5053421;28;20746;-65
2021/04/08 07:47:35;;;;;;;11.20;3.87;;;;;;;6.69;59.97;101606.06;5038308;28;20479;-64
2021/04/08 07:50:03;;;;;;;13.53;4.63;;;;;;;6.10;60.51;101605.38;5047892;28;20462;-67
2021/04/08 07:52:31;;;;;;;4.70;3.30;;;;;;;6.90;59.05;101603.41;5043122;28;20468;-65
2021/04/08 07:55:05;;;;;;;6.67;4.07;;;;;;;6.29;59.81;101612.22;5051398;28;20447;-65
2021/04/08 07:57:32;;;;;;;7.63;3.77;;;;;;;6.87;58.04;101605.88;5061399;28;20427;-65
2021/04/08 08:00:17;;;;;;;9.57;4.00;;;;;;;6.67;58.91;101612.88;5061606;28;20469;-66
2021/04/08 08:02:42;;;;;;;6.40;3.63;;;;;;;6.99;59.80;101606.34;5054628;28;20448;-66
2021/04/08 08:05:25;;;;;;;10.03;3.67;;;;;;;8.23;54.62;101618.53;5063318;28;20441;-69
2021/04/08 08:07:52;;;;;;;6.10;4.13;;;;;;;9.46;50.88;101599.75;5049659;28;20184;-67
2021/04/08 08:10:20;;;;;;;8.73;3.93;;;;;;;9.04;52.20;101607.25;5043404;28;20444;-67
2021/04/08 08:12:46;;;;;;;9.10;4.40;;;;;;;10.51;49.03;101615.53;5057781;28;20475;-67
2021/04/08 08:15:19;;;;;;;5.80;3.30;;;;;;;9.86;48.44;101611.28;5043765;28;20448;-67
2021/04/08 08:17:45;;;;;;;8.47;3.67;;;;;;;9.24;50.04;101622.56;5041606;28;20217;-68
2021/04/08 08:20:11;;;;;;;6.37;3.23;;;;;;;8.06;52.50;101631.84;5042159;28;20472;-67
2021/04/08 08:22:38;;;;;;;9.70;3.43;;;;;;;8.25;52.79;101627.25;5047905;28;20169;-67
2021/04/08 08:25:05;;;;;;;11.23;3.60;;;;;;;7.41;56.10;101634.75;5042965;28;20472;-67
2021/04/08 08:27:59;;;;;;;7.10;3.60;;;;;;;7.60;55.40;101630.19;5043520;28;20956;-66
2021/04/08 08:30:32;;;;;;;7.20;3.97;;;;;;;6.61;58.24;101642.00;5045176;28;20503;-67
2021/04/08 08:33:14;;;;;;;9.60;3.80;;;;;;;6.94;57.34;101636.41;5045143;28;20543;-66
2021/04/08 08:35:40;;;;;;;8.10;3.23;;;;;;;6.62;57.92;101643.78;5044806;28;20834;-66
2021/04/08 08:38:08;;;;;;;8.50;4.00;;;;;;;6.32;59.00;101654.66;5056381;28;20439;-67
2021/04/08 08:40:34;;;;;;;5.00;3.70;;;;;;;6.49;57.91;101651.88;5066323;28;20182;-67
2021/04/08 08:42:59;;;;;;;8.30;4.17;;;;;;;6.76;57.72;101648.66;5079461;28;20543;-68
2021/04/08 08:45:25;;;;;;;7.93;3.93;;;;;;;6.36;59.12;101648.78;5059159;28;20491;-67
2021/04/08 08:47:51;;;;;;;5.47;3.90;;;;;;;6.68;59.06;101656.09;5092672;28;20618;-66
2021/04/08 08:50:18;;;;;;;5.53;3.90;;;;;;;7.23;57.05;101645.28;5057514;28;20692;-66
2021/04/08 08:52:45;;;;;;;10.00;4.10;;;;;;;6.96;56.52;101652.91;5087972;28;20206;-66
2021/04/08 08:55:14;;;;;;;6.50;3.70;;;;;;;7.02;57.11;101647.06;5082609;28;20452;-66
2021/04/08 08:57:40;;;;;;;7.90;4.93;;;;;;;8.11;54.93;101634.59;5049368;28;20477;-66
2021/04/08 09:00:07;;;;;;;8.40;4.10;;;;;;;8.94;51.82;101628.63;5043101;28;20464;-67
2021/04/08 09:02:35;;;;;;;8.50;4.30;;;;;;;8.98;51.47;101627.00;5053944;28;20428;-67
2021/04/08 09:05:00;;;;;;;6.70;3.67;;;;;;;11.17;45.47;101616.16;5060951;28;20432;-68
2021/04/08 09:07:26;;;;;;;8.33;3.47;;;;;;;11.52;42.03;101621.22;5060079;28;20687;-67
2021/04/08 09:09:56;;;;;;;7.93;3.30;;;;;;;11.63;41.53;101614.47;5059145;28;20447;-67
2021/04/08 09:12:22;;;;;;;6.27;2.70;;;;;;;11.96;40.21;101615.97;5057039;28;20214;-66
2021/04/08 09:14:49;;;;;;;5.83;2.97;;;;;;;9.93;44.19;101639.22;5061007;28;20832;-68
2021/04/08 09:17:44;;;;;;;14.30;3.30;;;;;;;10.03;44.63;101637.78;5075617;28;20423;-67
2021/04/08 09:20:12;;;;;;;6.20;3.23;;;;;;;8.30;48.07;101641.28;5055454;28;20422;-67
2021/04/08 09:22:57;;;;;;;5.80;2.80;;;;;;;7.95;49.32;101637.50;5065844;28;20784;-67
2021/04/08 09:25:32;;;;;;;6.80;3.17;;;;;;;8.47;48.64;101643.59;5067953;28;20609;-68
2021/04/08 09:28:07;;;;;;;4.17;3.30;;;;;;;8.06;50.21;101655.22;5053348;28;20488;-68
2021/04/08 09:30:43;;;;;;;8.33;4.43;;;;;;;8.05;50.97;101645.66;5063372;28;20444;-66
2021/04/08 09:33:09;;;;;;;12.10;3.83;;;;;;;8.65;48.53;101651.13;5059253;28;20658;-67
2021/04/08 09:35:35;;;;;;;9.60;3.87;;;;;;;8.10;49.60;101645.78;5096475;28;20529;-66
2021/04/08 09:38:00;;;;;;;6.30;3.27;;;;;;;7.83;50.32;101644.00;5072742;28;20445;-67
2021/04/08 09:40:28;;;;;;;5.60;3.03;;;;;;;8.32;48.47;101634.44;5055219;28;20220;-67
2021/04/08 09:42:59;;;;;;;6.20;3.63;;;;;;;8.34;48.96;101637.97;5063423;28;20218;-66
2021/04/08 09:45:25;;;;;;;8.67;3.93;;;;;;;8.39;48.38;101636.41;5050738;28;20589;-67
2021/04/08 09:48:13;;;;;;;4.40;3.30;;;;;;;8.29;48.78;101647.31;5074763;28;20504;-68
2021/04/08 09:50:48;;;;;;;8.97;3.63;;;;;;;8.19;48.67;101643.53;5069834;28;20485;-67
2021/04/08 09:53:14;;;;;;;4.70;3.00;;;;;;;7.51;51.16;101650.63;5062545;28;20437;-66
2021/04/08 09:55:41;;;;;;;7.33;3.63;;;;;;;7.37;51.77;101658.81;5067306;28;20431;-66
2021/04/08 09:58:07;;;;;;;3.90;3.07;;;;;;;7.07;50.38;101654.19;5073884;28;20611;-68
2021/04/08 10:00:33;;;;;;;8.17;3.40;;;;;;;7.66;49.67;101660.69;5067034;28;20912;-67
2021/04/08 10:03:03;;;;;;;7.50;4.20;;;;;;;7.65;48.52;101664.13;5069228;28;20434;-67
2021/04/08 10:05:38;;;;;;;6.70;3.33;;;;;;;7.05;49.93;101666.22;5074191;28;20460;-68
2021/04/08 10:08:05;;;;;;;4.90;3.60;;;;;;;7.24;52.03;101698.06;5044883;28;20447;-67
2021/04/08 10:10:36;;;;;;;4.33;3.30;;;;;;;7.00;54.29;101704.03;5062068;28;20418;-67
2021/04/08 10:13:27;;;;;;;5.30;3.50;;;;;;;6.11;58.29;101696.06;5051542;28;20495;-67
2021/04/08 10:15:54;;;;;;;4.77;3.00;;;;;;;5.68;58.38;101699.31;5042998;28;20803;-67
2021/04/08 10:18:26;;;;;;;4.73;2.87;;;;;;;6.53;57.38;101696.09;5057172;28;20426;-67
2021/04/08 10:20:54;;;;;;;4.60;2.83;;;;;;;6.71;56.75;101692.50;5064427;28;20447;-68
2021/04/08 10:23:29;;;;;;;3.27;2.63;;;;;;;7.07;55.62;101685.31;5056275;28;20444;-67
2021/04/08 10:25:56;;;;;;;3.83;2.57;;;;;;;7.26;54.07;101688.63;5070680;28;20470;-67
2021/04/08 10:28:22;;;;;;;4.00;2.87;;;;;;;7.32;52.67;101686.28;5057588;28;20835;-67
2021/04/08 10:30:47;;;;;;;5.10;2.80;;;;;;;8.33;50.36;101672.56;5065194;28;20454;-67
2021/04/08 10:33:19;;;;;;;5.93;2.70;;;;;;;8.42;50.46;101675.47;5075142;28;20432;-68
2021/04/08 10:35:44;;;;;;;4.60;3.00;;;;;;;8.72;47.78;101672.13;5048808;28;20172;-68
2021/04/08 10:38:10;;;;;;;6.97;3.30;;;;;;;9.19;44.92;101671.88;5072280;28;20844;-68
2021/04/08 10:40:36;;;;;;;4.17;2.80;;;;;;;9.90;43.47;101663.50;5069935;28;20211;-69
2021/04/08 10:43:12;;;;;;;6.23;2.80;;;;;;;10.09;43.00;101667.47;5063080;28;20173;-69
2021/04/08 10:45:39;;;;;;;9.27;5.30;;;;;;;8.99;44.74;101663.44;5050065;28;20860;-67
2021/04/08 10:48:08;;;;;;;4.63;3.13;;;;;;;9.38;45.38;101665.50;5083978;28;20434;-67
2021/04/08 10:50:33;;;;;;;5.87;3.30;;;;;;;9.43;44.24;101666.53;5060204;28;20431;-68
2021/04/08 10:53:00;;;;;;;4.23;3.10;;;;;;;9.71;44.56;101661.22;5061764;28;20891;-68
2021/04/08 10:55:26;;;;;;;3.17;2.50;;;;;;;8.39;45.14;101672.78;5073810;28;20185;-68
2021/04/08 10:57:51;;;;;;;3.53;3.23;;;;;;;8.87;43.93;101666.53;5072828;28;20455;-67
2021/04/08 11:00:17;;;;;;;3.67;2.90;;;;;;;8.45;45.46;101661.72;5066414;28;20446;-68
2021/04/08 11:02:44;;;;;;;5.93;2.70;;;;;;;7.53;47.16;101674.94;5066306;28;20213;-67
2021/04/08 11:05:22;;;;;;;5.10;3.07;;;;;;;7.83;47.03;101658.72;5050476;28;20439;-67
2021/04/08 11:07:51;;;;;;;5.30;3.10;;;;;;;8.27;45.55;101667.16;5047338;28;20443;-66
2021/04/08 11:10:21;;;;;;;5.93;3.40;;;;;;;7.48;46.92;101673.88;5075555;28;20429;-67
2021/04/08 11:12:48;;;;;;;6.10;3.13;;;;;;;8.00;47.16;101662.78;5060056;28;20463;-66
2021/04/08 11:15:14;;;;;;;9.50;4.40;;;;;;;8.11;48.59;101668.34;5058277;28;20544;-68
2021/04/08 11:17:47;;;;;;;5.83;3.07;;;;;;;7.34;47.24;101669.03;5061251;28;20466;-68
2021/04/08 11:20:34;;;;;;;4.40;2.90;;;;;;;7.11;45.79;101675.06;5072146;28;20181;-67
2021/04/08 11:23:00;;;;;;;6.03;3.10;;;;;;;8.26;44.76;101671.47;5061802;28;20450;-68
2021/04/08 11:25:27;;;;;;;4.30;2.73;;;;;;;8.33;45.07;101667.34;5083431;28;20485;-67
2021/04/08 11:27:57;;;;;;;3.40;2.60;;;;;;;8.56;43.17;101668.16;5064710;28;20273;-67
2021/04/08 11:30:39;;;;;;;3.40;2.70;;;;;;;7.99;45.75;101679.19;5065887;28;20438;-69
2021/04/08 11:33:07;;;;;;;7.60;3.40;;;;;;;8.17;45.70;101675.47;5060683;28;20912;-69
2021/04/08 11:35:40;;;;;;;7.43;3.40;;;;;;;7.62;47.98;101692.53;5065194;28;20436;-68